Aérodrome :
LOGIN :

S'inscrire | Disclaimer

   EN    FR    IT 

 










Légende :    VFR   VFR Marginal   IFR   IFR Intensif   IFR Très Intensif
Visi : 
Plafond : 
>= 8 km
>= 3000ft
5 à 8 km
1000 à 3000 ft
1500m à 5 km
500 à 1000 ft
800 à 1500m
200 à 500 ft
< 800m
< 200 ft
Symboles :   Orages  Brouillard  Fortes neiges  Fortes précipitations  Vent > 20 kt
SIGMETs :   Divers  Orages  Givrage  Turbulence  Onde Orograph.  Cendres Volcan.







- Altitude de l'aérodrome : 122 ft
- Code IATA : TXL


EDDT - Berlin Tegel Int.

DERNIER METAR :
  • 231120Z 29011KT 260V350 9999 SCT037 BKN060 18/09 Q1018 TEMPO 27015G25KT

METARs EXPIRÉS :
  • 231050Z 30009KT 260V340 9999 SCT037 BKN060 17/10 Q1018 TEMPO 27015G25KT
  • 231020Z 29010KT 250V340 9999 SCT022 BKN040 16/10 Q1018 TEMPO 27015G25KT
  • 230950Z 28010KT 250V310 9999 SCT019 BKN039 14/10 Q1018 TEMPO 27015G25KT
  • 230920Z 27010KT 230V310 9999 BKN016 BKN018 14/10 Q1018 TEMPO 27015G25KT
  • 230850Z 27013KT 9999 BKN014 13/11 Q1019 TEMPO 27015G25KT

TAF TAF EDDT
Valide du 23 à 12h jusqu'au 24 à 12h UTC


231100Z 2312/2412 28015KT 9999 SCT025 BKN040
PROB30
TEMPO 2312/2318 28015G25KT
BECMG 2318/2321 27010KT
PROB30
TEMPO 2318/2401 BKN012
BECMG 2401/2404 BKN012
TEMPO 2401/2406 4000 -RADZ BKN008
BECMG 2406/2409 BKN015
Pas de NOTAMs connus pour ce terrain.



MET'MAP, la Météo Aéronautique d'un coup d'oeil ! - Copyright ORBIFLY Décembre 2007 - Disclaimer

ORBIFLY MET'MAP TEAM :

Programmation & Développement : Alexandra Zaïnal
Conception & Développement : Baudouin d'Aumeries
Co-Programmation & Développement : Marc-Olivier Méhu
Soutien technique & logistique : Manuel Goepfert

Contact : metmap@orbifly.com




SOURCES & CREDITS :

   NOAA